Terminal Aerodrome Forecast
Issued by NWS Grand Forks, ND

Home | Current Version | Previous Version | Text Only | Print | Product List | Glossary On
Versions: 1 2 3 4 5 6 7 8 9 10 11 12 13 14 15 16 17 18 19 20
733
FTUS43 KFGF 261722
TAFGFK
TAF
KGFK 261722Z 2618/2718 32018G28KT P6SM SKC
     FM270000 33017KT P6SM SKC
     FM270300 31008KT P6SM SKC
     FM271500 33012KT P6SM SKC=

USA.gov is the U.S. government's official web portal to all federal, state and local government web resources and services.